logo dgac
Martes 21 de Septiembre del 2021
Buscar por aerodromo o helipuerto
Ingrese nombre de aeródromo, localidad o designador OACI:
TAF: TAF SCVM 211000Z 2112/2212 26003KT 9999 BKN010 TX15/2118Z TN10/2210Z TEMPO 2112/2115 4000 BR BKN008 BECMG 2116/2118 30010KT BECMG 2202/2204 30004KT BKN020
TAF del 21/09/2021 a las 10:00 UTC
Para mayor información visite www.meteochile.cl
Período de validez: desde el 21 a las 12:00 UTC hasta el 22 a las 12:00 UTC
Viento: dirección 260 grados, velocidad 3 nudos
Visibilidad: 10 km o más
Nubes: Nublado a 1000 pies sobre el nivel del aeródromo
Temperatura máxima: 15ºC el 21 a las 18:00 UTC
Temperatura mínima: 10ºC el 22 a las 10:00 UTC
Se espera en forma temporal entre las 12:00 UTC del 21 y las 15:00 UTC del 21:
Visibilidad: 4000 metros
Neblina
Nubes: Nublado a 800 pies sobre el nivel del aeródromo
Se espera un cambio entre las 16:00 UTC del 21 y las 18:00 UTC del 21, :
Viento: dirección 300 grados, velocidad 10 nudos
Se espera un cambio entre las 02:00 UTC del 22 y las 04:00 UTC del 22, :
Viento: dirección 300 grados, velocidad 4 nudos
Nubes: Nublado a 2000 pies sobre el nivel del aeródromo